Time;durP1;ratioP1;P1;durP2;ratioP2;P2;SDS_P1;SDS_P2;PMS_P1;PMS_P2;Temp;Humidity;BMP_temperature;BMP_pressure;BME280_temperature;BME280_humidity;BME280_pressure;Samples;Min_cycle;Max_cycle;Signal;HPM_P1;HPM_P2
2022/01/10 00:00:21;;;;;;;15.03;8.20;;;5.10;99.90;;;;;;5071585;28;20173;-69
2022/01/10 00:02:50;;;;;;;18.93;9.10;;;5.20;99.90;;;;;;5073123;28;20215;-70
2022/01/10 00:05:16;;;;;;;17.73;8.70;;;5.20;99.90;;;;;;5072722;28;20222;-71
2022/01/10 00:07:42;;;;;;;17.60;8.70;;;5.20;99.90;;;;;;5071071;28;20264;-70
2022/01/10 00:10:09;;;;;;;18.30;9.30;;;5.20;99.90;;;;;;5072938;28;20210;-69
2022/01/10 00:12:35;;;;;;;21.93;10.03;;;5.20;99.90;;;;;;5072407;28;20186;-70
2022/01/10 00:15:00;;;;;;;17.63;8.33;;;5.10;99.90;;;;;;5072082;28;20202;-70
2022/01/10 00:17:26;;;;;;;20.93;8.90;;;5.10;99.90;;;;;;5072365;28;20313;-69
2022/01/10 00:19:51;;;;;;;17.40;8.47;;;5.20;99.90;;;;;;5071859;28;20206;-69
2022/01/10 00:22:18;;;;;;;16.90;8.37;;;5.20;99.90;;;;;;5072991;28;20208;-69
2022/01/10 00:24:44;;;;;;;24.77;10.60;;;5.20;99.90;;;;;;5072950;28;20299;-70
2022/01/10 00:27:10;;;;;;;16.03;8.70;;;5.20;99.90;;;;;;5073243;28;20309;-69
2022/01/10 00:29:36;;;;;;;21.50;9.43;;;5.20;99.90;;;;;;5072566;28;20302;-69
2022/01/10 00:32:01;;;;;;;14.70;9.03;;;5.20;99.90;;;;;;5072332;28;20300;-69
2022/01/10 00:34:27;;;;;;;19.00;9.00;;;5.20;99.90;;;;;;5071123;28;20219;-70
2022/01/10 00:36:53;;;;;;;22.10;8.37;;;5.20;99.90;;;;;;5072718;28;20276;-69
2022/01/10 00:39:19;;;;;;;13.40;8.37;;;5.20;99.90;;;;;;5072478;28;20182;-70
2022/01/10 00:41:45;;;;;;;17.73;8.10;;;5.20;99.90;;;;;;5072840;28;20277;-69
2022/01/10 00:44:11;;;;;;;22.90;8.03;;;5.20;99.90;;;;;;5072640;28;20624;-70
2022/01/10 00:46:37;;;;;;;22.03;8.93;;;5.20;99.90;;;;;;5071682;28;20779;-70
2022/01/10 00:49:03;;;;;;;17.77;8.63;;;5.20;99.90;;;;;;5070491;28;20297;-69
2022/01/10 00:51:28;;;;;;;18.57;8.80;;;5.20;99.90;;;;;;5071611;28;20189;-69
2022/01/10 00:53:54;;;;;;;18.67;8.60;;;5.20;99.90;;;;;;5072314;28;20178;-69
2022/01/10 00:56:20;;;;;;;18.10;8.47;;;5.20;99.90;;;;;;5070154;28;20257;-71
2022/01/10 00:58:47;;;;;;;16.80;8.73;;;5.20;99.90;;;;;;5071535;28;20267;-68
2022/01/10 01:01:13;;;;;;;23.80;8.57;;;5.20;99.90;;;;;;5070364;28;20221;-71
2022/01/10 01:03:39;;;;;;;20.20;8.83;;;5.20;99.90;;;;;;5070073;28;20222;-70
2022/01/10 01:06:04;;;;;;;18.43;8.33;;;5.20;99.90;;;;;;5071982;28;20567;-69
2022/01/10 01:08:32;;;;;;;16.93;8.63;;;5.20;99.90;;;;;;5071064;28;20304;-69
2022/01/10 01:12:09;;;;;;;21.03;8.33;;;5.20;99.90;;;;;;5071638;28;20206;-69
2022/01/10 01:13:56;;;;;;;18.13;8.20;;;5.20;99.90;;;;;;5070655;28;20621;-68
2022/01/10 01:24:45;;;;;;;18.37;8.73;;;5.20;99.90;;;;;;5071461;28;20263;-69
2022/01/10 01:27:11;;;;;;;16.27;7.57;;;5.10;99.90;;;;;;5071465;28;20742;-69
2022/01/10 01:29:36;;;;;;;22.93;9.10;;;5.20;99.90;;;;;;5070844;28;20230;-69
2022/01/10 01:32:02;;;;;;;15.93;7.93;;;5.20;99.90;;;;;;5071140;28;20634;-69
2022/01/10 01:34:28;;;;;;;22.83;9.10;;;5.20;99.90;;;;;;5071149;28;20221;-69
2022/01/10 01:36:55;;;;;;;18.77;8.40;;;5.20;99.90;;;;;;5070886;28;20215;-69
2022/01/10 01:39:24;;;;;;;20.77;8.23;;;5.20;99.90;;;;;;5069652;28;20175;-70
2022/01/10 01:41:56;;;;;;;14.47;7.77;;;5.20;99.90;;;;;;5071279;28;20715;-69
2022/01/10 01:44:22;;;;;;;21.57;8.10;;;5.20;99.90;;;;;;5070792;28;20211;-69
2022/01/10 01:46:47;;;;;;;20.70;8.67;;;5.20;99.90;;;;;;5070343;28;20206;-70
2022/01/10 01:49:14;;;;;;;20.43;8.00;;;5.20;99.90;;;;;;5070724;28;20240;-69
2022/01/10 01:51:42;;;;;;;19.10;8.53;;;5.20;99.90;;;;;;5070697;28;20230;-69
2022/01/10 01:54:09;;;;;;;18.10;7.83;;;5.20;99.90;;;;;;5071352;28;20187;-69
2022/01/10 01:56:35;;;;;;;19.10;8.63;;;5.20;99.90;;;;;;5069158;28;20218;-69
2022/01/10 01:59:02;;;;;;;19.33;8.97;;;5.20;99.90;;;;;;5068512;28;20211;-69
2022/01/10 02:01:28;;;;;;;17.10;8.17;;;5.20;99.90;;;;;;5068202;28;20211;-69
2022/01/10 02:03:53;;;;;;;23.03;8.47;;;5.20;99.90;;;;;;5068690;28;20237;-69
2022/01/10 02:06:19;;;;;;;18.57;8.43;;;5.20;99.90;;;;;;5070563;28;20636;-69
2022/01/10 02:08:45;;;;;;;21.00;8.33;;;5.20;99.90;;;;;;5070643;28;20183;-69
2022/01/10 02:11:13;;;;;;;18.83;7.63;;;5.20;99.90;;;;;;5070870;28;20267;-69
2022/01/10 02:13:40;;;;;;;14.33;7.40;;;5.20;99.90;;;;;;5070683;28;20210;-69
2022/01/10 02:16:08;;;;;;;17.07;7.70;;;5.20;99.90;;;;;;5070397;28;20214;-70
2022/01/10 02:18:34;;;;;;;19.07;8.20;;;5.20;99.90;;;;;;5070054;28;20182;-70
2022/01/10 02:21:03;;;;;;;20.67;7.57;;;5.20;99.90;;;;;;5071135;28;20236;-70
2022/01/10 02:23:29;;;;;;;17.00;8.23;;;5.20;99.90;;;;;;5069012;28;20215;-69
2022/01/10 02:25:56;;;;;;;16.73;7.70;;;5.20;99.90;;;;;;5069155;28;20233;-69
2022/01/10 02:28:22;;;;;;;18.20;7.77;;;5.30;99.90;;;;;;5068767;28;20211;-69
2022/01/10 02:30:55;;;;;;;13.30;6.70;;;5.20;99.90;;;;;;5070559;28;20213;-69
2022/01/10 02:33:21;;;;;;;17.10;7.43;;;5.20;99.90;;;;;;5069066;28;20186;-70
2022/01/10 02:38:52;;;;;;;16.00;7.83;;;5.20;99.90;;;;;;5068781;28;20209;-69
2022/01/10 02:41:29;;;;;;;20.80;8.17;;;5.30;99.90;;;;;;5070476;28;20210;-70
2022/01/10 02:43:55;;;;;;;18.03;7.43;;;5.30;99.90;;;;;;5069011;28;20224;-69
2022/01/10 02:46:22;;;;;;;15.30;8.03;;;5.30;99.90;;;;;;5068737;28;20219;-69
2022/01/10 02:48:48;;;;;;;18.57;8.00;;;5.20;99.90;;;;;;5070013;28;20213;-69
2022/01/10 02:51:13;;;;;;;14.80;7.70;;;5.30;99.90;;;;;;5069443;28;20193;-69
2022/01/10 02:53:39;;;;;;;19.33;8.00;;;5.20;99.90;;;;;;5070170;28;20203;-69
2022/01/10 02:56:05;;;;;;;20.63;8.33;;;5.30;99.90;;;;;;5070795;28;20302;-69
2022/01/10 02:58:30;;;;;;;18.37;7.23;;;5.30;99.90;;;;;;5073695;28;20690;-69
2022/01/10 03:00:56;;;;;;;16.67;7.90;;;5.30;99.90;;;;;;5073787;28;20210;-69
2022/01/10 03:03:21;;;;;;;18.90;7.57;;;5.30;99.90;;;;;;5073604;28;20198;-69
2022/01/10 03:05:47;;;;;;;14.13;7.13;;;5.30;99.90;;;;;;5074211;28;20547;-69
2022/01/10 03:08:12;;;;;;;17.43;7.57;;;5.20;99.90;;;;;;5073578;28;20225;-69
2022/01/10 03:10:38;;;;;;;15.83;7.63;;;5.30;99.90;;;;;;5073693;28;20557;-69
2022/01/10 03:13:04;;;;;;;23.43;7.07;;;5.20;99.90;;;;;;5073583;28;20209;-71
2022/01/10 03:15:29;;;;;;;15.17;7.13;;;5.30;99.90;;;;;;5073712;28;20194;-69
2022/01/10 03:17:55;;;;;;;19.17;8.13;;;5.30;99.90;;;;;;5073377;28;20682;-70
2022/01/10 03:20:23;;;;;;;18.20;7.77;;;5.30;99.90;;;;;;5073512;28;20713;-69
2022/01/10 03:22:49;;;;;;;15.77;7.53;;;5.20;99.90;;;;;;5072106;28;20207;-69
2022/01/10 03:25:14;;;;;;;19.10;7.43;;;5.30;99.90;;;;;;5073555;28;20222;-69
2022/01/10 03:27:40;;;;;;;18.80;7.93;;;5.30;99.90;;;;;;5072812;28;20345;-69
2022/01/10 03:30:06;;;;;;;17.10;7.60;;;5.30;99.90;;;;;;5073883;28;20225;-69
2022/01/10 03:32:31;;;;;;;15.67;7.07;;;5.30;99.90;;;;;;5069637;28;20199;-69
2022/01/10 03:34:57;;;;;;;11.47;7.50;;;5.30;99.90;;;;;;5067795;28;20217;-70
2022/01/10 03:37:24;;;;;;;16.57;7.87;;;5.30;99.90;;;;;;5072713;28;20249;-69
2022/01/10 03:39:50;;;;;;;16.23;7.67;;;5.30;99.90;;;;;;5072860;28;20233;-69
2022/01/10 03:42:16;;;;;;;17.00;7.53;;;5.30;99.90;;;;;;5072024;28;20179;-69
2022/01/10 03:44:41;;;;;;;17.30;7.20;;;5.30;99.90;;;;;;5073150;28;20233;-69
2022/01/10 03:47:07;;;;;;;17.10;7.73;;;5.30;99.90;;;;;;5072827;28;20203;-69
2022/01/10 03:49:32;;;;;;;13.70;7.63;;;5.30;99.90;;;;;;5072730;28;20686;-69
2022/01/10 03:51:58;;;;;;;21.10;8.33;;;5.40;99.90;;;;;;5072998;28;20213;-69
2022/01/10 03:54:23;;;;;;;13.00;7.67;;;5.30;99.90;;;;;;5071782;28;20224;-69
2022/01/10 03:56:49;;;;;;;18.00;7.80;;;5.30;99.90;;;;;;5071785;28;20202;-69
2022/01/10 03:59:15;;;;;;;20.63;7.33;;;5.30;99.90;;;;;;5071462;28;20255;-69
2022/01/10 04:01:40;;;;;;;22.03;8.03;;;5.30;99.90;;;;;;5072682;28;20761;-69
2022/01/10 04:04:07;;;;;;;17.10;8.00;;;5.30;99.90;;;;;;5072620;28;20218;-69
2022/01/10 04:06:33;;;;;;;18.10;8.13;;;5.30;99.90;;;;;;5071070;28;20209;-69
2022/01/10 04:08:59;;;;;;;14.03;7.20;;;5.30;99.90;;;;;;5072183;28;20189;-69
2022/01/10 04:11:24;;;;;;;22.87;8.00;;;5.30;99.90;;;;;;5070990;28;20206;-70
2022/01/10 04:13:50;;;;;;;18.47;7.90;;;5.30;99.90;;;;;;5072620;28;20210;-69
2022/01/10 04:16:16;;;;;;;18.87;7.20;;;5.30;99.90;;;;;;5072447;28;20302;-69
2022/01/10 04:18:41;;;;;;;17.83;8.13;;;5.30;99.90;;;;;;5072150;28;20256;-68
2022/01/10 04:21:07;;;;;;;17.60;7.97;;;5.20;99.90;;;;;;5072877;28;20175;-69
2022/01/10 04:23:32;;;;;;;13.43;7.50;;;5.30;99.90;;;;;;5072077;28;20221;-68
2022/01/10 04:25:58;;;;;;;19.07;7.67;;;5.20;99.90;;;;;;5072221;28;20712;-69
2022/01/10 04:28:24;;;;;;;11.37;6.57;;;5.30;99.90;;;;;;5071695;28;20238;-68
2022/01/10 04:30:49;;;;;;;20.33;7.53;;;5.20;99.90;;;;;;5070804;28;20587;-69
2022/01/10 04:33:18;;;;;;;18.10;8.10;;;5.20;99.90;;;;;;5072459;28;20174;-69
2022/01/10 04:35:44;;;;;;;18.37;7.57;;;5.20;99.90;;;;;;5070362;28;20245;-69
2022/01/10 04:38:10;;;;;;;17.53;8.30;;;5.30;99.90;;;;;;5070305;28;20210;-68
2022/01/10 04:40:36;;;;;;;16.03;7.53;;;5.20;99.90;;;;;;5071878;28;20207;-68
2022/01/10 04:43:01;;;;;;;18.63;7.93;;;5.20;99.90;;;;;;5070268;28;20226;-69
2022/01/10 04:45:27;;;;;;;22.33;8.77;;;5.20;99.90;;;;;;5071795;28;20686;-69
2022/01/10 04:47:52;;;;;;;17.40;7.10;;;5.20;99.90;;;;;;5071745;28;20198;-70
2022/01/10 04:52:46;;;;;;;17.53;7.30;;;5.20;99.90;;;;;;5063686;28;20229;-69
2022/01/10 04:55:13;;;;;;;16.10;7.47;;;5.30;99.90;;;;;;5071762;28;20210;-69
2022/01/10 04:57:39;;;;;;;18.70;8.17;;;5.30;99.90;;;;;;5071218;28;20222;-68
2022/01/10 05:00:12;;;;;;;18.07;7.97;;;5.20;99.90;;;;;;5072203;28;20171;-70
2022/01/10 05:02:38;;;;;;;17.33;8.43;;;5.30;99.90;;;;;;5069942;28;20591;-70
2022/01/10 05:05:05;;;;;;;17.67;7.53;;;5.30;99.90;;;;;;5071253;28;20211;-69
2022/01/10 05:07:30;;;;;;;16.43;8.00;;;5.30;99.90;;;;;;5071087;28;20218;-69
2022/01/10 05:09:57;;;;;;;19.20;8.77;;;5.30;99.90;;;;;;5071331;28;20207;-70
2022/01/10 05:12:24;;;;;;;17.90;8.53;;;5.30;99.90;;;;;;5071021;28;20185;-68
2022/01/10 05:14:50;;;;;;;22.70;8.53;;;5.30;99.90;;;;;;5070602;28;20187;-70
2022/01/10 05:17:18;;;;;;;15.67;7.60;;;5.30;99.90;;;;;;5075466;22;20788;-72
2022/01/10 05:19:44;;;;;;;19.90;7.93;;;5.30;99.90;;;;;;5039844;28;20224;-73
2022/01/10 05:22:09;;;;;;;22.13;8.53;;;5.30;99.90;;;;;;5036173;28;20720;-73
2022/01/10 05:24:34;;;;;;;16.47;7.57;;;5.30;99.90;;;;;;5041203;28;20590;-72
2022/01/10 05:27:00;;;;;;;20.30;8.23;;;5.30;99.90;;;;;;5043057;28;20207;-73
2022/01/10 05:29:26;;;;;;;15.07;7.57;;;5.30;99.90;;;;;;5041871;28;20211;-73
2022/01/10 05:31:51;;;;;;;17.37;7.90;;;5.30;99.90;;;;;;5039185;28;20206;-73
2022/01/10 05:34:16;;;;;;;13.97;8.00;;;5.20;99.90;;;;;;5034109;28;20211;-72
2022/01/10 05:36:42;;;;;;;16.47;7.93;;;5.30;99.90;;;;;;5041864;28;20241;-73
2022/01/10 05:39:08;;;;;;;21.33;8.67;;;5.30;99.90;;;;;;5042883;28;20179;-73
2022/01/10 05:41:34;;;;;;;15.93;8.40;;;5.30;99.90;;;;;;5042441;28;20210;-73
2022/01/10 05:44:00;;;;;;;23.03;8.53;;;5.30;99.90;;;;;;5027448;28;20215;-73
2022/01/10 05:46:26;;;;;;;17.50;8.23;;;5.30;99.90;;;;;;5038781;28;20244;-73
2022/01/10 05:48:53;;;;;;;22.03;8.60;;;5.30;99.90;;;;;;5020914;28;20291;-73
2022/01/10 05:51:20;;;;;;;15.77;7.87;;;5.30;99.90;;;;;;5044598;28;20510;-73
2022/01/10 05:53:46;;;;;;;17.80;8.77;;;5.20;99.90;;;;;;5051189;28;20179;-72
2022/01/10 05:56:12;;;;;;;18.30;8.57;;;5.20;99.90;;;;;;5032905;28;20223;-73
2022/01/10 05:58:37;;;;;;;17.63;7.83;;;5.30;99.90;;;;;;5050169;28;20221;-73
2022/01/10 06:01:03;;;;;;;16.20;8.27;;;5.30;99.90;;;;;;5050735;28;20216;-73
2022/01/10 06:03:29;;;;;;;17.00;7.83;;;5.30;99.90;;;;;;5023217;28;20616;-72
2022/01/10 06:05:54;;;;;;;15.43;7.63;;;5.30;99.90;;;;;;5013485;28;20169;-73
2022/01/10 06:08:20;;;;;;;17.07;8.00;;;5.30;99.90;;;;;;5012549;28;20208;-74
2022/01/10 06:10:46;;;;;;;17.40;8.63;;;5.30;99.90;;;;;;5032901;28;20207;-73
2022/01/10 06:13:11;;;;;;;17.40;7.87;;;5.30;99.90;;;;;;5032746;28;20695;-72
2022/01/10 06:15:37;;;;;;;17.50;8.00;;;5.30;99.90;;;;;;5034927;28;20179;-73
2022/01/10 06:18:03;;;;;;;19.83;7.57;;;5.30;99.90;;;;;;5051647;28;20721;-74
2022/01/10 06:20:28;;;;;;;18.67;7.93;;;5.30;99.90;;;;;;5042154;28;20216;-73
2022/01/10 06:22:54;;;;;;;13.93;7.87;;;5.30;99.90;;;;;;5030781;28;20584;-73
2022/01/10 06:25:23;;;;;;;17.00;7.90;;;5.30;99.90;;;;;;5012752;28;20223;-74
2022/01/10 06:27:48;;;;;;;19.33;8.87;;;5.40;99.90;;;;;;5030015;28;20212;-73
2022/01/10 06:30:14;;;;;;;18.40;7.93;;;5.40;99.90;;;;;;5013455;28;20191;-73
2022/01/10 06:32:40;;;;;;;21.03;8.60;;;5.40;99.90;;;;;;5033272;28;20212;-74
2022/01/10 06:35:06;;;;;;;14.53;7.57;;;5.40;99.90;;;;;;5034478;28;20220;-72
2022/01/10 06:37:32;;;;;;;15.23;7.50;;;5.40;99.90;;;;;;5016198;28;20230;-72
2022/01/10 06:39:57;;;;;;;13.73;7.23;;;5.40;99.90;;;;;;5034309;28;20211;-73
2022/01/10 06:42:23;;;;;;;12.87;7.70;;;5.40;99.90;;;;;;5034039;28;20190;-72
2022/01/10 06:44:48;;;;;;;16.73;7.67;;;5.40;99.90;;;;;;5038829;28;20210;-73
2022/01/10 06:47:14;;;;;;;17.53;7.07;;;5.40;99.90;;;;;;5054028;28;20218;-73
2022/01/10 06:49:39;;;;;;;16.63;8.33;;;5.40;99.90;;;;;;5032280;28;20281;-73
2022/01/10 06:52:05;;;;;;;15.90;8.27;;;5.40;99.90;;;;;;5033730;28;20281;-75
2022/01/10 06:54:31;;;;;;;14.80;7.20;;;5.40;99.90;;;;;;5034119;28;20590;-72
2022/01/10 06:56:58;;;;;;;17.00;8.07;;;5.40;99.90;;;;;;5034661;28;20237;-72
2022/01/10 06:59:27;;;;;;;15.67;7.43;;;5.40;99.90;;;;;;5015995;28;20211;-73
2022/01/10 07:01:55;;;;;;;20.47;8.70;;;5.40;99.90;;;;;;5033917;28;20211;-73
2022/01/10 07:04:21;;;;;;;12.90;7.60;;;5.40;99.90;;;;;;5033859;28;20233;-72
2022/01/10 07:06:47;;;;;;;13.97;6.70;;;5.40;99.90;;;;;;5033718;28;20581;-72
2022/01/10 07:09:12;;;;;;;16.17;7.13;;;5.50;99.90;;;;;;5041128;28;20274;-73
2022/01/10 07:11:38;;;;;;;18.50;7.57;;;5.40;99.90;;;;;;5035833;28;20291;-73
2022/01/10 07:14:04;;;;;;;11.33;6.33;;;5.50;99.90;;;;;;5053712;28;20199;-72
2022/01/10 07:16:30;;;;;;;17.13;7.43;;;5.50;99.90;;;;;;5053529;28;20696;-72
2022/01/10 07:18:55;;;;;;;15.03;7.03;;;5.40;99.90;;;;;;5035409;28;20207;-73
2022/01/10 07:21:21;;;;;;;14.87;7.13;;;5.50;99.90;;;;;;5018179;28;20180;-73
2022/01/10 07:23:48;;;;;;;16.83;7.77;;;5.50;99.90;;;;;;5033904;28;20242;-73
2022/01/10 07:26:14;;;;;;;13.13;7.87;;;5.50;99.90;;;;;;5015765;28;20455;-73
2022/01/10 07:28:39;;;;;;;18.50;7.80;;;5.50;99.90;;;;;;5015143;28;20215;-73
2022/01/10 07:31:05;;;;;;;23.57;8.83;;;5.50;99.90;;;;;;5015593;28;20235;-73
2022/01/10 07:33:30;;;;;;;21.37;9.60;;;5.50;99.90;;;;;;5033000;28;20191;-73
2022/01/10 07:35:56;;;;;;;21.87;8.97;;;5.50;99.90;;;;;;5033954;28;20234;-74
2022/01/10 07:38:23;;;;;;;14.93;9.00;;;5.50;99.90;;;;;;5014890;28;20776;-72
2022/01/10 07:40:49;;;;;;;20.87;9.13;;;5.40;99.90;;;;;;5033480;28;20207;-73
2022/01/10 07:43:14;;;;;;;22.00;9.67;;;5.40;99.90;;;;;;5031956;28;20255;-72
2022/01/10 07:45:40;;;;;;;17.00;8.20;;;5.40;99.90;;;;;;5033212;28;20247;-73
2022/01/10 07:48:06;;;;;;;21.67;9.23;;;5.40;99.90;;;;;;5033247;28;20286;-72
2022/01/10 07:50:31;;;;;;;18.73;9.50;;;5.40;99.90;;;;;;5033165;28;20208;-73
2022/01/10 07:52:57;;;;;;;22.57;9.10;;;5.50;99.90;;;;;;5032797;28;20208;-73
2022/01/10 07:55:22;;;;;;;25.53;9.13;;;5.50;99.90;;;;;;5015209;28;20214;-72
2022/01/10 07:57:48;;;;;;;16.23;9.17;;;5.50;99.90;;;;;;5018373;28;20215;-73
2022/01/10 08:00:14;;;;;;;20.07;9.83;;;5.50;99.90;;;;;;5053600;28;20192;-73
2022/01/10 08:02:39;;;;;;;23.30;9.10;;;5.50;99.90;;;;;;5034632;28;20294;-73
2022/01/10 08:05:07;;;;;;;16.57;9.60;;;5.50;99.90;;;;;;5052855;28;20710;-73
2022/01/10 08:07:33;;;;;;;18.60;9.67;;;5.50;99.90;;;;;;5052252;28;20298;-73
2022/01/10 08:09:58;;;;;;;26.50;11.00;;;5.50;99.90;;;;;;5052537;28;20329;-74
2022/01/10 08:12:24;;;;;;;23.33;10.00;;;5.50;99.90;;;;;;5034715;28;20188;-73
2022/01/10 08:14:50;;;;;;;18.00;8.60;;;5.60;99.90;;;;;;5035610;28;20259;-72
2022/01/10 08:17:15;;;;;;;17.47;9.10;;;5.60;99.90;;;;;;5052225;28;20301;-74
2022/01/10 08:19:40;;;;;;;17.00;8.13;;;5.60;99.90;;;;;;5041524;28;20760;-73
2022/01/10 08:22:07;;;;;;;21.97;9.30;;;5.60;99.90;;;;;;5020828;28;20211;-73
2022/01/10 08:24:33;;;;;;;22.07;8.77;;;5.60;99.90;;;;;;5052468;28;20296;-73
2022/01/10 08:26:59;;;;;;;18.83;9.27;;;5.60;99.90;;;;;;5052811;28;20686;-73
2022/01/10 08:29:25;;;;;;;26.27;9.70;;;5.60;99.90;;;;;;5052093;28;20295;-73
2022/01/10 08:31:50;;;;;;;16.70;8.20;;;5.60;99.90;;;;;;5052515;28;20195;-74
2022/01/10 08:34:16;;;;;;;23.67;8.93;;;5.60;99.90;;;;;;5052005;28;20245;-73
2022/01/10 08:36:42;;;;;;;22.43;9.10;;;5.70;99.90;;;;;;5052044;28;20291;-73
2022/01/10 08:39:09;;;;;;;18.47;9.07;;;5.70;99.90;;;;;;5052971;28;20725;-73
2022/01/10 08:41:37;;;;;;;24.13;9.67;;;5.70;99.90;;;;;;5052330;28;20298;-71
2022/01/10 08:44:04;;;;;;;18.23;8.50;;;5.70;99.90;;;;;;5052059;28;20260;-72
2022/01/10 08:46:30;;;;;;;19.83;9.33;;;5.70;99.90;;;;;;5033801;28;20711;-72
2022/01/10 08:48:55;;;;;;;23.23;10.47;;;5.70;99.90;;;;;;5051220;28;20214;-73
2022/01/10 08:51:21;;;;;;;18.87;9.23;;;5.70;99.90;;;;;;5016377;28;20598;-73
2022/01/10 08:53:46;;;;;;;22.40;9.43;;;5.70;99.90;;;;;;5034169;28;20629;-71
2022/01/10 08:56:12;;;;;;;15.10;9.23;;;5.70;99.90;;;;;;5052022;28;20713;-74
2022/01/10 08:58:37;;;;;;;16.87;8.63;;;5.70;99.90;;;;;;5031150;28;20321;-72
2022/01/10 09:01:05;;;;;;;19.87;9.17;;;5.70;99.90;;;;;;5028148;28;20233;-71
2022/01/10 09:03:32;;;;;;;14.97;9.17;;;5.80;99.90;;;;;;5033361;28;20716;-73
2022/01/10 09:05:58;;;;;;;19.17;9.30;;;5.80;99.90;;;;;;5034402;28;20172;-72
2022/01/10 09:08:26;;;;;;;19.57;10.00;;;5.80;99.90;;;;;;5042376;28;20644;-73
2022/01/10 09:10:53;;;;;;;18.60;8.50;;;5.90;99.90;;;;;;5031804;28;20208;-72
2022/01/10 09:13:19;;;;;;;19.67;9.27;;;5.90;99.90;;;;;;5013665;28;20983;-72
2022/01/10 09:15:45;;;;;;;21.10;9.43;;;5.90;99.90;;;;;;5031577;28;20266;-72
2022/01/10 09:18:10;;;;;;;16.10;8.87;;;5.90;99.90;;;;;;5030064;28;20699;-73
2022/01/10 09:20:36;;;;;;;23.87;9.33;;;6.00;99.90;;;;;;5031621;28;20247;-73
2022/01/10 09:23:01;;;;;;;17.90;8.80;;;6.00;99.90;;;;;;5031247;28;20204;-72
2022/01/10 09:25:27;;;;;;;20.17;8.93;;;6.00;99.90;;;;;;5031433;28;20216;-71
2022/01/10 09:27:53;;;;;;;24.13;9.03;;;6.00;99.90;;;;;;5030913;28;20295;-72
2022/01/10 09:30:18;;;;;;;21.43;9.87;;;6.00;99.90;;;;;;5013777;28;20234;-73
2022/01/10 09:32:45;;;;;;;19.83;9.57;;;6.00;99.90;;;;;;5013851;28;20218;-73
2022/01/10 09:35:10;;;;;;;19.00;10.23;;;6.00;99.90;;;;;;5031264;28;20299;-73
2022/01/10 09:37:36;;;;;;;18.17;9.57;;;6.00;99.90;;;;;;5013039;28;20303;-73
2022/01/10 09:40:02;;;;;;;20.60;9.17;;;6.10;99.90;;;;;;5036663;28;20203;-73
2022/01/10 09:42:28;;;;;;;21.33;8.83;;;6.10;99.90;;;;;;5050796;28;20267;-74
2022/01/10 09:44:54;;;;;;;19.93;9.77;;;6.10;99.90;;;;;;5033672;28;20188;-74
2022/01/10 09:47:19;;;;;;;18.30;9.20;;;6.10;99.90;;;;;;5032778;28;20290;-75
2022/01/10 09:49:45;;;;;;;18.33;8.47;;;6.10;99.90;;;;;;5046372;28;20284;-73
2022/01/10 09:52:13;;;;;;;25.47;9.43;;;6.10;99.90;;;;;;5030787;28;20631;-74
2022/01/10 09:54:38;;;;;;;18.20;9.20;;;6.00;99.90;;;;;;5030928;28;23178;-75
2022/01/10 09:57:04;;;;;;;20.33;8.73;;;6.10;99.90;;;;;;5045355;28;20191;-72
2022/01/10 09:59:30;;;;;;;21.77;9.23;;;6.10;99.90;;;;;;5050404;28;20680;-73
2022/01/10 10:01:56;;;;;;;16.90;9.00;;;6.10;99.90;;;;;;5051112;28;20206;-73
2022/01/10 10:04:21;;;;;;;15.23;9.40;;;6.00;99.90;;;;;;5032628;28;20215;-73
2022/01/10 10:06:47;;;;;;;27.37;10.43;;;6.00;99.90;;;;;;5046785;28;20207;-71
2022/01/10 10:09:14;;;;;;;21.07;8.90;;;6.00;99.90;;;;;;5013158;28;20648;-73
2022/01/10 10:11:50;;;;;;;17.47;8.93;;;6.00;99.90;;;;;;5049681;28;20219;-72
2022/01/10 10:14:18;;;;;;;15.90;9.70;;;6.00;99.90;;;;;;5050606;28;20578;-75
2022/01/10 10:16:51;;;;;;;15.10;7.93;;;6.00;99.90;;;;;;5050176;28;20215;-73
2022/01/10 10:19:23;;;;;;;19.87;8.87;;;6.00;99.90;;;;;;5049955;28;20219;-73
2022/01/10 10:21:50;;;;;;;19.30;10.43;;;6.00;99.90;;;;;;5042826;28;20223;-73
2022/01/10 10:24:17;;;;;;;21.30;10.03;;;6.10;99.90;;;;;;5051036;28;20206;-72
2022/01/10 10:26:42;;;;;;;21.20;9.60;;;6.10;99.90;;;;;;5032461;28;20211;-72
2022/01/10 10:29:13;;;;;;;21.97;9.07;;;6.10;99.90;;;;;;5050123;28;20223;-72
2022/01/10 10:31:46;;;;;;;17.73;9.57;;;6.10;99.90;;;;;;5050429;28;20246;-72
2022/01/10 10:34:20;;;;;;;19.67;8.87;;;6.20;99.90;;;;;;5050379;28;20772;-72
2022/01/10 10:36:58;;;;;;;18.13;9.40;;;6.20;99.90;;;;;;5032708;28;20242;-73
2022/01/10 10:39:25;;;;;;;19.30;9.33;;;6.20;99.90;;;;;;5032024;28;20202;-74
2022/01/10 10:41:55;;;;;;;20.47;10.07;;;6.20;99.90;;;;;;5050739;28;20178;-72
2022/01/10 10:44:21;;;;;;;18.50;9.63;;;6.20;99.90;;;;;;5050206;28;20648;-71
2022/01/10 10:46:49;;;;;;;21.50;9.57;;;6.20;99.90;;;;;;5050317;28;20204;-72
2022/01/10 10:49:18;;;;;;;21.20;9.63;;;6.20;99.90;;;;;;5049831;28;20208;-72
2022/01/10 10:51:47;;;;;;;23.10;9.93;;;6.20;99.90;;;;;;5030036;28;20217;-72
2022/01/10 10:54:13;;;;;;;23.27;10.47;;;6.20;99.90;;;;;;5030673;28;20245;-72
2022/01/10 10:56:40;;;;;;;23.43;10.73;;;6.20;99.90;;;;;;5032523;28;20224;-71
2022/01/10 10:59:07;;;;;;;20.40;11.50;;;6.20;99.90;;;;;;5050217;28;20598;-72
2022/01/10 11:01:36;;;;;;;18.40;10.40;;;6.20;99.90;;;;;;5049884;28;20364;-71
2022/01/10 11:04:03;;;;;;;19.60;9.63;;;6.20;99.90;;;;;;5032366;28;20571;-72
2022/01/10 11:06:33;;;;;;;21.80;9.60;;;6.20;99.90;;;;;;5049797;28;20180;-71
2022/01/10 11:09:06;;;;;;;20.13;10.73;;;6.20;99.90;;;;;;5050061;28;20547;-71
2022/01/10 11:11:32;;;;;;;22.20;9.30;;;6.20;99.90;;;;;;5031927;28;20212;-72
2022/01/10 11:13:58;;;;;;;19.87;10.27;;;6.20;99.90;;;;;;5050014;28;20208;-71
2022/01/10 11:16:25;;;;;;;22.30;10.97;;;6.20;99.90;;;;;;5031760;28;20592;-71
2022/01/10 11:18:51;;;;;;;21.67;10.17;;;6.20;99.90;;;;;;5065583;23;20250;-71
2022/01/10 11:21:16;;;;;;;26.90;11.50;;;6.30;99.90;;;;;;5046169;28;20211;-71
2022/01/10 11:23:45;;;;;;;25.00;10.67;;;6.30;99.90;;;;;;5033321;28;20219;-70
2022/01/10 11:26:12;;;;;;;20.37;10.20;;;6.30;99.90;;;;;;5033862;28;20673;-71
2022/01/10 11:28:56;;;;;;;21.40;10.67;;;6.30;99.90;;;;;;5043750;28;20223;-71
2022/01/10 11:31:27;;;;;;;24.17;11.17;;;6.30;99.90;;;;;;5053314;28;20702;-69
2022/01/10 11:33:55;;;;;;;22.57;10.37;;;6.40;99.90;;;;;;5035225;28;20210;-69
2022/01/10 11:36:24;;;;;;;21.03;10.33;;;6.40;99.90;;;;;;5053583;28;20187;-69
2022/01/10 11:38:56;;;;;;;17.77;9.50;;;6.40;99.90;;;;;;5036231;28;20199;-71
2022/01/10 11:41:24;;;;;;;23.57;9.30;;;6.40;99.90;;;;;;5053384;28;20218;-69
2022/01/10 11:44:04;;;;;;;20.70;9.77;;;6.50;99.90;;;;;;5035209;28;20298;-68
2022/01/10 11:46:39;;;;;;;16.17;8.17;;;6.50;99.90;;;;;;5053030;28;20223;-70
2022/01/10 11:49:15;;;;;;;16.10;8.37;;;6.50;99.90;;;;;;5052837;28;20215;-70
2022/01/10 11:51:42;;;;;;;17.40;8.37;;;6.50;99.90;;;;;;5036751;28;20202;-69
2022/01/10 11:54:09;;;;;;;12.27;7.40;;;6.40;99.90;;;;;;5053250;28;20326;-69
2022/01/10 11:56:38;;;;;;;15.63;7.20;;;6.40;99.90;;;;;;5052795;28;20227;-69
2022/01/10 11:59:17;;;;;;;9.57;5.87;;;6.50;99.90;;;;;;5034547;28;20224;-71
2022/01/10 12:02:03;;;;;;;9.17;5.03;;;6.50;99.90;;;;;;5052522;28;20594;-70
2022/01/10 12:04:34;;;;;;;12.53;5.27;;;6.60;99.90;;;;;;5052520;28;20653;-70
2022/01/10 12:07:02;;;;;;;9.00;5.00;;;6.60;99.90;;;;;;5052831;28;20291;-71
2022/01/10 12:09:28;;;;;;;8.43;4.03;;;6.60;99.90;;;;;;5034394;28;20184;-70
2022/01/10 12:11:56;;;;;;;8.63;4.30;;;6.60;99.90;;;;;;5053151;28;20175;-69
2022/01/10 12:14:22;;;;;;;9.43;3.57;;;6.60;99.90;;;;;;5034452;28;20219;-68
2022/01/10 12:16:48;;;;;;;8.47;3.83;;;6.60;99.90;;;;;;5034752;28;20671;-69
2022/01/10 12:19:14;;;;;;;9.43;3.93;;;6.50;99.90;;;;;;5051892;28;20703;-70
2022/01/10 12:21:41;;;;;;;6.17;3.80;;;6.50;99.90;;;;;;5052323;28;20219;-70
2022/01/10 12:24:07;;;;;;;10.07;5.90;;;6.50;99.90;;;;;;5035087;28;20204;-69
2022/01/10 12:26:33;;;;;;;9.80;4.13;;;6.50;99.90;;;;;;5052299;28;20215;-70
2022/01/10 12:29:00;;;;;;;6.93;3.70;;;6.50;99.90;;;;;;5051417;28;20203;-67
2022/01/10 12:31:28;;;;;;;6.37;3.80;;;6.50;99.90;;;;;;5052339;28;20704;-69
2022/01/10 12:33:56;;;;;;;6.93;3.87;;;6.50;99.90;;;;;;5052558;28;20231;-70
2022/01/10 12:36:24;;;;;;;6.07;3.07;;;6.50;99.90;;;;;;5052526;28;20188;-70
2022/01/10 12:38:59;;;;;;;4.83;2.70;;;6.40;99.90;;;;;;5034370;28;20194;-70
2022/01/10 12:41:28;;;;;;;5.37;2.90;;;6.50;99.90;;;;;;5034374;28;20813;-71
2022/01/10 12:43:55;;;;;;;8.67;3.37;;;6.50;99.90;;;;;;5051967;28;20314;-70
2022/01/10 12:46:22;;;;;;;5.20;3.37;;;6.50;99.90;;;;;;5052073;28;20208;-70
2022/01/10 12:48:50;;;;;;;5.40;3.53;;;6.40;99.90;;;;;;5051835;28;20216;-71
2022/01/10 12:51:17;;;;;;;3.43;2.67;;;6.40;99.90;;;;;;5053213;28;20255;-71
2022/01/10 12:53:47;;;;;;;6.10;3.00;;;6.40;99.90;;;;;;5033543;28;20214;-70
2022/01/10 12:56:15;;;;;;;4.97;3.10;;;6.40;99.90;;;;;;5034057;28;20298;-69